createdAt,value
2023-02-07T00:01:12.804Z,1.90
2023-02-07T00:03:42.550Z,1.90
2023-02-07T00:06:14.100Z,1.70
2023-02-07T00:08:45.488Z,1.80
2023-02-07T00:11:17.354Z,2.00
2023-02-07T00:13:47.422Z,2.10
2023-02-07T00:16:17.103Z,1.90
2023-02-07T00:18:46.566Z,1.90
2023-02-07T00:21:18.127Z,2.20
2023-02-07T00:23:50.513Z,2.00
2023-02-07T00:26:21.331Z,2.00
2023-02-07T00:28:51.565Z,2.30
2023-02-07T00:31:24.168Z,2.20
2023-02-07T00:33:55.885Z,2.10
2023-02-07T00:36:27.310Z,2.20
2023-02-07T00:39:01.299Z,2.30
2023-02-07T00:41:31.260Z,2.30
2023-02-07T00:44:02.475Z,2.30
2023-02-07T00:46:32.141Z,2.30
2023-02-07T00:49:01.549Z,2.30
2023-02-07T00:51:30.964Z,2.30
2023-02-07T00:54:02.497Z,2.40
2023-02-07T00:56:32.615Z,2.30
2023-02-07T00:59:02.179Z,2.30
2023-02-07T01:01:31.671Z,2.30
2023-02-07T01:04:01.364Z,2.30
2023-02-07T01:06:34.057Z,2.30
2023-02-07T01:09:06.767Z,2.10
2023-02-07T01:11:36.273Z,2.00
2023-02-07T01:14:05.747Z,1.90
2023-02-07T01:16:37.429Z,1.90
2023-02-07T01:19:09.485Z,1.90
2023-02-07T01:21:39.228Z,2.00
2023-02-07T01:24:10.803Z,2.20
2023-02-07T01:26:40.692Z,2.30
2023-02-07T01:29:10.378Z,2.10
2023-02-07T01:31:39.938Z,2.00
2023-02-07T01:34:13.696Z,2.20
2023-02-07T01:36:43.339Z,2.00
2023-02-07T01:39:16.415Z,2.00
2023-02-07T01:41:45.836Z,2.10
2023-02-07T01:44:48.013Z,2.00
2023-02-07T01:47:19.796Z,1.80
2023-02-07T01:49:51.044Z,1.90
2023-02-07T01:52:23.568Z,1.90
2023-02-07T01:55:02.630Z,2.00
2023-02-07T01:58:19.363Z,1.80
2023-02-07T02:00:50.002Z,2.10
2023-02-07T02:03:19.614Z,2.10
2023-02-07T02:05:51.617Z,1.70
2023-02-07T02:08:22.139Z,1.90
2023-02-07T02:11:19.857Z,1.80
2023-02-07T02:13:56.559Z,1.60
2023-02-07T02:16:32.986Z,1.70
2023-02-07T02:19:31.903Z,1.60
2023-02-07T02:22:24.123Z,1.50
2023-02-07T02:25:36.980Z,1.50
2023-02-07T02:28:50.688Z,1.60
2023-02-07T02:31:51.009Z,1.90
2023-02-07T02:34:29.632Z,1.60
2023-02-07T02:37:08.508Z,1.60
2023-02-07T02:39:44.919Z,1.70
2023-02-07T02:42:20.019Z,1.80
2023-02-07T02:44:55.230Z,1.90
2023-02-07T02:47:26.010Z,2.20
2023-02-07T02:49:58.053Z,2.20
2023-02-07T02:52:44.619Z,2.00
2023-02-07T02:55:22.540Z,1.90
2023-02-07T02:58:04.673Z,2.00
2023-02-07T03:00:57.064Z,2.10
2023-02-07T03:03:46.225Z,1.80
2023-02-07T03:06:32.822Z,1.60
2023-02-07T03:09:08.060Z,1.60
2023-02-07T03:11:43.996Z,1.70
2023-02-07T03:14:23.631Z,1.80
2023-02-07T03:16:59.565Z,1.80
2023-02-07T03:19:34.507Z,2.00
2023-02-07T03:22:11.222Z,2.00
2023-02-07T03:24:46.899Z,1.80
2023-02-07T03:27:20.670Z,1.70
2023-02-07T03:29:58.031Z,1.70
2023-02-07T03:32:32.831Z,1.60
2023-02-07T03:35:08.259Z,1.40
2023-02-07T03:37:42.958Z,1.60
2023-02-07T03:40:14.360Z,1.70
2023-02-07T03:42:48.253Z,1.90
2023-02-07T03:45:21.709Z,1.70
2023-02-07T03:47:51.740Z,1.90
2023-02-07T03:50:21.312Z,1.90
2023-02-07T03:52:52.329Z,1.70
2023-02-07T03:55:21.896Z,1.70
2023-02-07T03:57:51.203Z,1.80
2023-02-07T04:00:21.293Z,1.70
2023-02-07T04:02:50.762Z,1.40
2023-02-07T04:05:20.228Z,1.30
2023-02-07T04:07:51.274Z,1.40
2023-02-07T04:10:20.935Z,1.40
2023-02-07T04:12:50.322Z,1.30
2023-02-07T04:15:20.400Z,1.40
2023-02-07T04:17:49.883Z,1.50
2023-02-07T04:20:19.644Z,1.60
2023-02-07T04:22:49.184Z,1.50
2023-02-07T04:25:20.134Z,1.50
2023-02-07T04:27:50.743Z,1.70
2023-02-07T04:30:20.421Z,1.80
2023-02-07T04:32:49.780Z,2.00
2023-02-07T04:37:48.894Z,1.90
2023-02-07T04:40:20.252Z,1.70
2023-02-07T04:42:49.717Z,1.50
2023-02-07T04:45:19.185Z,1.10
2023-02-07T04:47:48.695Z,0.90
2023-02-07T04:50:18.437Z,0.80
2023-02-07T04:52:47.906Z,1.00
2023-02-07T04:57:48.467Z,1.00
2023-02-07T05:00:18.625Z,0.80
2023-02-07T05:02:48.080Z,0.90
2023-02-07T05:05:17.519Z,0.90
2023-02-07T05:07:47.004Z,1.10
2023-02-07T05:10:16.534Z,1.20
2023-02-07T05:12:46.053Z,1.30
2023-02-07T05:15:16.961Z,1.30
2023-02-07T05:17:46.645Z,1.40
2023-02-07T05:20:16.067Z,1.40
2023-02-07T05:22:45.490Z,1.30
2023-02-07T05:25:14.882Z,1.20
2023-02-07T05:27:44.513Z,1.10
2023-02-07T05:30:16.134Z,1.10
2023-02-07T05:33:04.800Z,1.20
2023-02-07T05:35:35.405Z,1.00
2023-02-07T05:38:06.694Z,0.90
2023-02-07T05:40:36.395Z,1.10
2023-02-07T05:43:06.047Z,1.10
2023-02-07T05:45:37.831Z,1.00
2023-02-07T05:48:08.218Z,3.40
2023-02-07T05:50:37.688Z,0.70
2023-02-07T05:53:09.005Z,0.40
2023-02-07T05:55:38.885Z,0.70
2023-02-07T05:58:08.382Z,0.70
2023-02-07T06:00:39.425Z,0.70
2023-02-07T06:03:09.314Z,0.80
2023-02-07T06:05:39.013Z,0.50
2023-02-07T06:08:08.644Z,0.50
2023-02-07T06:10:38.237Z,0.60
2023-02-07T06:13:07.683Z,0.40
2023-02-07T06:15:38.846Z,0.40
2023-02-07T06:18:09.415Z,0.80
2023-02-07T06:20:38.694Z,0.90
2023-02-07T06:23:08.156Z,0.90
2023-02-07T06:25:37.686Z,1.00
2023-02-07T06:28:07.472Z,0.90
2023-02-07T06:30:38.675Z,0.70
2023-02-07T06:33:08.124Z,0.80
2023-02-07T06:35:37.934Z,1.00
2023-02-07T06:38:07.793Z,1.10
2023-02-07T06:40:37.098Z,1.10
2023-02-07T06:43:08.925Z,0.90
2023-02-07T06:45:40.337Z,0.90
2023-02-07T06:48:11.039Z,1.10
2023-02-07T06:50:40.546Z,1.40
2023-02-07T06:53:09.820Z,1.20
2023-02-07T06:55:41.107Z,1.40
2023-02-07T06:58:11.089Z,1.20
2023-02-07T07:00:42.026Z,0.70
2023-02-07T07:03:15.097Z,0.80
2023-02-07T07:05:45.299Z,1.00
2023-02-07T07:08:18.551Z,1.30
2023-02-07T07:10:48.215Z,1.50
2023-02-07T07:13:17.654Z,1.60
2023-02-07T07:15:48.645Z,1.80
2023-02-07T07:18:18.049Z,1.80
2023-02-07T07:20:47.304Z,2.10
2023-02-07T07:23:16.829Z,2.40
2023-02-07T07:25:46.189Z,2.10
2023-02-07T07:28:15.634Z,2.00
2023-02-07T07:30:45.945Z,2.20
2023-02-07T07:33:16.878Z,2.20
2023-02-07T07:35:46.467Z,2.30
2023-02-07T07:38:15.891Z,2.20
2023-02-07T07:40:45.331Z,2.10
2023-02-07T07:43:14.757Z,2.00
2023-02-07T07:45:48.701Z,2.20
2023-02-07T07:48:19.927Z,2.40
2023-02-07T07:50:49.739Z,2.60
2023-02-07T07:53:19.884Z,2.70
2023-02-07T07:55:51.995Z,2.60
2023-02-07T07:58:22.452Z,2.90
2023-02-07T08:00:52.479Z,3.20
2023-02-07T08:03:23.636Z,3.50
2023-02-07T08:05:53.634Z,3.40
2023-02-07T08:08:23.190Z,3.50
2023-02-07T08:10:52.681Z,3.80
2023-02-07T08:13:22.598Z,3.80
2023-02-07T08:15:52.375Z,3.70
2023-02-07T08:18:23.513Z,4.00
2023-02-07T08:20:53.171Z,4.00
2023-02-07T08:23:22.592Z,4.00
2023-02-07T08:25:54.807Z,4.20
2023-02-07T08:28:24.644Z,4.00
2023-02-07T08:30:54.190Z,3.90
2023-02-07T08:33:25.177Z,4.10
2023-02-07T08:35:55.778Z,4.00
2023-02-07T08:38:25.343Z,3.90
2023-02-07T08:40:54.879Z,3.70
2023-02-07T08:43:24.514Z,4.20
2023-02-07T08:45:53.891Z,4.10
2023-02-07T08:48:25.111Z,4.40
2023-02-07T08:50:55.299Z,4.40
2023-02-07T08:53:24.781Z,4.20
2023-02-07T08:55:54.161Z,4.30
2023-02-07T08:58:23.623Z,4.20
2023-02-07T09:00:52.969Z,4.30
2023-02-07T09:03:24.075Z,4.40
2023-02-07T09:05:58.565Z,4.50
2023-02-07T09:08:28.029Z,4.60
2023-02-07T09:10:57.632Z,4.60
2023-02-07T09:13:27.042Z,4.90
2023-02-07T09:15:57.746Z,5.20
2023-02-07T09:18:31.394Z,5.10
2023-02-07T09:21:01.040Z,5.00
2023-02-07T09:23:31.764Z,4.80
2023-02-07T09:26:04.193Z,5.10
2023-02-07T09:28:34.233Z,5.10
2023-02-07T09:31:10.493Z,5.20
2023-02-07T09:33:41.946Z,5.20
2023-02-07T09:36:20.309Z,5.70
2023-02-07T09:38:50.476Z,5.30
2023-02-07T09:41:26.205Z,5.10
2023-02-07T09:44:07.520Z,5.60
2023-02-07T09:46:40.101Z,5.60
2023-02-07T09:49:19.180Z,5.80
2023-02-07T09:51:50.412Z,5.70
2023-02-07T09:54:26.328Z,5.60
2023-02-07T09:56:58.712Z,5.40
2023-02-07T09:59:35.902Z,6.00
2023-02-07T10:02:13.385Z,5.20
2023-02-07T10:04:50.277Z,5.00
2023-02-07T10:07:20.040Z,5.50
2023-02-07T10:09:49.757Z,5.20
2023-02-07T10:12:51.658Z,5.10
2023-02-07T10:15:43.918Z,5.20
2023-02-07T10:18:31.721Z,5.30
2023-02-07T10:21:12.098Z,5.50
2023-02-07T10:23:51.886Z,5.60
2023-02-07T10:26:31.101Z,5.40
2023-02-07T10:29:29.493Z,5.50
2023-02-07T10:32:04.023Z,5.60
2023-02-07T10:34:39.560Z,6.20
2023-02-07T10:37:19.829Z,6.50
2023-02-07T10:39:54.800Z,6.40
2023-02-07T10:42:24.665Z,5.60
2023-02-07T10:44:53.961Z,5.70
2023-02-07T10:47:23.759Z,6.60
2023-02-07T10:49:55.535Z,6.60
2023-02-07T10:52:38.051Z,7.20
2023-02-07T10:55:11.071Z,6.70
2023-02-07T10:57:45.958Z,7.40
2023-02-07T11:00:30.406Z,7.80
2023-02-07T11:03:04.611Z,8.60
2023-02-07T11:05:43.038Z,8.10
2023-02-07T11:08:25.130Z,8.60
2023-02-07T11:10:55.947Z,8.20
2023-02-07T11:13:29.141Z,7.80
2023-02-07T11:16:04.456Z,8.10
2023-02-07T11:18:45.589Z,8.40
2023-02-07T11:21:27.476Z,8.50
2023-02-07T11:24:02.116Z,8.00
2023-02-07T11:26:32.977Z,7.90
2023-02-07T11:29:08.838Z,8.50
2023-02-07T11:31:39.855Z,8.60
2023-02-07T11:34:28.365Z,9.30
2023-02-07T11:37:09.704Z,9.60
2023-02-07T11:39:41.837Z,9.70
2023-02-07T11:42:15.213Z,9.80
2023-02-07T11:44:48.220Z,9.90
2023-02-07T11:47:21.555Z,9.60
2023-02-07T11:49:54.893Z,9.50
2023-02-07T11:52:24.524Z,9.90
2023-02-07T11:55:07.818Z,10.30
2023-02-07T11:57:37.919Z,10.00
2023-02-07T12:00:18.187Z,10.30
2023-02-07T12:02:53.436Z,10.50
2023-02-07T12:05:29.149Z,10.80
2023-02-07T12:08:03.217Z,11.10
2023-02-07T12:10:37.637Z,9.90
2023-02-07T12:13:13.522Z,9.20
2023-02-07T12:15:47.366Z,10.30
2023-02-07T12:18:25.217Z,10.70
2023-02-07T12:21:00.171Z,11.40
2023-02-07T12:23:43.322Z,11.40
2023-02-07T12:26:25.928Z,11.10
2023-02-07T12:29:15.004Z,11.30
2023-02-07T12:31:56.540Z,11.60
2023-02-07T12:34:32.804Z,11.50
2023-02-07T12:37:10.734Z,11.40
2023-02-07T12:39:45.979Z,10.90
2023-02-07T12:42:31.233Z,10.10
2023-02-07T12:45:04.194Z,11.80
2023-02-07T12:47:48.885Z,11.80
2023-02-07T12:50:28.734Z,10.90
2023-02-07T12:53:09.906Z,12.30
2023-02-07T12:55:49.986Z,12.80
2023-02-07T12:58:44.425Z,12.60
2023-02-07T13:01:22.611Z,12.70
2023-02-07T13:04:07.804Z,13.30
2023-02-07T13:06:42.861Z,13.40
2023-02-07T13:09:17.630Z,11.10
2023-02-07T13:11:56.839Z,11.50
2023-02-07T13:14:39.157Z,12.00
2023-02-07T13:17:34.916Z,11.80
2023-02-07T13:20:12.840Z,12.00
2023-02-07T13:22:49.189Z,11.80
2023-02-07T13:25:24.366Z,12.60
2023-02-07T13:27:57.675Z,12.70
2023-02-07T13:30:31.605Z,12.60
2023-02-07T13:33:06.187Z,13.30
2023-02-07T13:35:40.220Z,13.80
2023-02-07T13:38:19.188Z,14.00
2023-02-07T13:41:00.749Z,13.00
2023-02-07T13:43:39.999Z,12.40
2023-02-07T13:46:24.660Z,13.10
2023-02-07T13:48:59.975Z,13.60
2023-02-07T13:51:37.143Z,13.80
2023-02-07T13:54:19.333Z,14.10
2023-02-07T13:57:16.241Z,13.70
2023-02-07T14:00:06.004Z,13.60
2023-02-07T14:02:47.876Z,13.80
2023-02-07T14:05:27.677Z,13.60
2023-02-07T14:08:01.560Z,13.40
2023-02-07T14:10:48.995Z,12.20
2023-02-07T14:13:32.330Z,11.30
2023-02-07T14:16:11.963Z,12.60
2023-02-07T14:18:53.331Z,13.10
2023-02-07T14:21:31.063Z,11.80
2023-02-07T14:24:06.658Z,11.40
2023-02-07T14:27:04.290Z,11.10
2023-02-07T14:29:55.707Z,12.30
2023-02-07T14:32:34.668Z,13.00
2023-02-07T14:35:08.327Z,12.40
2023-02-07T14:37:44.061Z,12.80
2023-02-07T14:40:24.247Z,11.90
2023-02-07T14:43:03.009Z,11.80
2023-02-07T14:45:34.930Z,12.10
2023-02-07T14:48:06.061Z,14.30
2023-02-07T14:50:38.190Z,11.10
2023-02-07T14:53:08.452Z,11.70
2023-02-07T14:55:45.902Z,11.40
2023-02-07T14:58:26.611Z,11.10
2023-02-07T15:01:00.521Z,12.40
2023-02-07T15:03:34.916Z,12.80
2023-02-07T15:06:30.798Z,13.20
2023-02-07T15:09:03.084Z,11.70
2023-02-07T15:11:38.636Z,12.90
2023-02-07T15:14:08.206Z,13.00
2023-02-07T15:16:40.586Z,12.00
2023-02-07T15:19:16.494Z,12.00
2023-02-07T15:21:49.989Z,11.60
2023-02-07T15:24:25.332Z,12.00
2023-02-07T15:26:59.012Z,12.50
2023-02-07T15:29:32.360Z,12.70
2023-02-07T15:32:02.338Z,12.50
2023-02-07T15:34:35.660Z,12.60
2023-02-07T15:37:17.880Z,12.40
2023-02-07T15:39:50.633Z,12.00
2023-02-07T15:42:22.120Z,12.00
2023-02-07T15:44:52.924Z,11.20
2023-02-07T15:47:40.142Z,11.20
2023-02-07T15:50:22.336Z,11.20
2023-02-07T15:52:56.223Z,11.00
2023-02-07T15:55:31.270Z,10.60
2023-02-07T15:58:01.131Z,9.50
2023-02-07T16:00:34.312Z,8.90
2023-02-07T16:03:08.313Z,8.40
2023-02-07T16:05:40.067Z,8.10
2023-02-07T16:08:32.577Z,8.20
2023-02-07T16:11:19.290Z,8.10
2023-02-07T16:13:51.444Z,8.00
2023-02-07T16:16:25.203Z,8.10
2023-02-07T16:19:05.416Z,7.70
2023-02-07T16:21:36.656Z,7.70
2023-02-07T16:24:15.636Z,7.90
2023-02-07T16:26:46.810Z,7.90
2023-02-07T16:29:19.044Z,8.20
2023-02-07T16:31:48.981Z,8.10
2023-02-07T16:34:21.355Z,7.90
2023-02-07T16:36:54.255Z,7.50
2023-02-07T16:39:25.404Z,7.40
2023-02-07T16:41:58.013Z,7.40
2023-02-07T16:44:31.535Z,7.50
2023-02-07T16:47:01.048Z,7.30
2023-02-07T16:49:33.371Z,7.30
2023-02-07T16:52:02.912Z,7.40
2023-02-07T16:54:33.893Z,7.20
2023-02-07T16:57:04.150Z,7.00
2023-02-07T16:59:33.985Z,7.00
2023-02-07T17:02:03.625Z,6.60
2023-02-07T17:04:33.052Z,6.20
2023-02-07T17:07:02.667Z,6.00
2023-02-07T17:09:33.686Z,6.10
2023-02-07T17:12:03.278Z,6.30
2023-02-07T17:14:32.736Z,6.30
2023-02-07T17:17:02.313Z,6.30
2023-02-07T17:19:31.697Z,6.30
2023-02-07T17:22:01.264Z,6.10
2023-02-07T17:24:31.887Z,6.00
2023-02-07T17:27:03.017Z,5.80
2023-02-07T17:29:32.589Z,5.60
2023-02-07T17:32:02.096Z,5.40
2023-02-07T17:34:31.666Z,5.30
2023-02-07T17:37:01.164Z,5.30
2023-02-07T17:39:30.693Z,5.70
2023-02-07T17:42:02.802Z,5.40
2023-02-07T17:44:34.024Z,5.50
2023-02-07T17:47:03.950Z,5.40
2023-02-07T17:49:33.837Z,5.30
2023-02-07T17:52:03.288Z,5.10
2023-02-07T17:54:32.822Z,4.90
2023-02-07T17:57:03.858Z,4.60
2023-02-07T17:59:34.318Z,4.70
2023-02-07T18:02:04.332Z,4.80
2023-02-07T18:04:33.777Z,4.80
2023-02-07T18:07:03.339Z,4.60
2023-02-07T18:09:32.797Z,4.50
2023-02-07T18:12:05.661Z,4.40
2023-02-07T18:14:35.194Z,4.90
2023-02-07T18:17:04.617Z,4.80
2023-02-07T18:19:36.314Z,4.60
2023-02-07T18:22:06.044Z,4.60
2023-02-07T18:24:35.582Z,4.60
2023-02-07T18:27:07.949Z,4.40
2023-02-07T18:29:37.568Z,4.60
2023-02-07T18:32:07.186Z,4.70
2023-02-07T18:34:36.700Z,4.50
2023-02-07T18:37:06.259Z,4.50
2023-02-07T18:39:35.725Z,4.60
2023-02-07T18:42:06.948Z,4.40
2023-02-07T18:44:36.630Z,4.30
2023-02-07T18:47:06.048Z,4.10
2023-02-07T18:49:36.208Z,4.00
2023-02-07T18:52:05.758Z,4.20
2023-02-07T18:54:36.776Z,4.40
2023-02-07T18:57:07.917Z,4.30
2023-02-07T18:59:39.089Z,4.10
2023-02-07T19:02:12.126Z,3.80
2023-02-07T19:04:41.705Z,4.10
2023-02-07T19:07:11.048Z,4.30
2023-02-07T19:09:40.962Z,4.50
2023-02-07T19:12:14.972Z,4.50
2023-02-07T19:14:46.260Z,4.20
2023-02-07T19:17:16.452Z,4.40
2023-02-07T19:19:45.928Z,4.20
2023-02-07T19:22:21.554Z,4.00
2023-02-07T19:24:56.398Z,4.00
2023-02-07T19:27:27.275Z,3.90
2023-02-07T19:29:56.925Z,3.70
2023-02-07T19:32:29.033Z,3.20
2023-02-07T19:34:59.635Z,3.10
2023-02-07T19:37:29.505Z,3.30
2023-02-07T19:39:59.969Z,3.60
2023-02-07T19:42:31.173Z,3.60
2023-02-07T19:45:01.377Z,3.70
2023-02-07T19:47:32.745Z,3.60
2023-02-07T19:50:04.319Z,3.30
2023-02-07T19:52:36.751Z,3.20
2023-02-07T19:55:07.280Z,3.60
2023-02-07T19:57:42.602Z,4.00
2023-02-07T20:00:15.366Z,3.30
2023-02-07T20:02:44.989Z,3.30
2023-02-07T20:05:16.409Z,3.50
2023-02-07T20:07:51.605Z,3.30
2023-02-07T20:10:23.911Z,3.70
2023-02-07T20:12:55.066Z,3.50
2023-02-07T20:15:27.014Z,3.10
2023-02-07T20:17:57.156Z,3.00
2023-02-07T20:20:26.825Z,3.40
2023-02-07T20:22:56.910Z,2.80
2023-02-07T20:25:33.622Z,2.80
2023-02-07T20:28:05.151Z,3.00
2023-02-07T20:30:35.304Z,3.00
2023-02-07T20:33:04.874Z,2.80
2023-02-07T20:35:34.666Z,3.20
2023-02-07T20:38:07.827Z,3.30
2023-02-07T20:40:38.740Z,3.30
2023-02-07T20:43:10.508Z,3.20
2023-02-07T20:45:41.856Z,3.60
2023-02-07T20:48:15.460Z,3.40
2023-02-07T20:50:45.264Z,3.30
2023-02-07T20:53:16.764Z,3.30
2023-02-07T20:55:46.350Z,3.20
2023-02-07T20:58:21.354Z,2.90
2023-02-07T21:00:51.346Z,2.80
2023-02-07T21:03:21.756Z,2.80
2023-02-07T21:05:51.338Z,3.00
2023-02-07T21:08:20.774Z,3.00
2023-02-07T21:10:50.444Z,2.90
2023-02-07T21:13:26.425Z,2.80
2023-02-07T21:16:03.315Z,3.20
2023-02-07T21:18:33.351Z,3.00
2023-02-07T21:21:07.289Z,3.30
2023-02-07T21:23:39.427Z,3.20
2023-02-07T21:26:10.691Z,3.20
2023-02-07T21:28:44.402Z,3.30
2023-02-07T21:31:18.942Z,3.20
2023-02-07T21:33:49.998Z,3.30
2023-02-07T21:36:22.500Z,3.40
2023-02-07T21:38:54.144Z,3.30
2023-02-07T21:41:26.059Z,3.50
2023-02-07T21:43:58.876Z,3.30
2023-02-07T21:46:31.073Z,2.90
2023-02-07T21:49:03.549Z,3.00
2023-02-07T21:51:36.403Z,3.00
2023-02-07T21:54:07.610Z,3.20
2023-02-07T21:56:39.309Z,3.30
2023-02-07T21:59:13.619Z,3.20
2023-02-07T22:01:43.319Z,3.20
2023-02-07T22:04:13.355Z,3.20
2023-02-07T22:06:44.109Z,3.20
2023-02-07T22:09:15.315Z,3.20
2023-02-07T22:11:45.574Z,3.10
2023-02-07T22:14:17.197Z,3.10
2023-02-07T22:16:46.918Z,3.00
2023-02-07T22:19:17.473Z,3.00
2023-02-07T22:21:48.294Z,3.00
2023-02-07T22:24:19.205Z,3.00
2023-02-07T22:26:48.724Z,2.90
2023-02-07T22:29:19.575Z,2.90
2023-02-07T22:31:49.168Z,3.00
2023-02-07T22:34:18.632Z,3.00
2023-02-07T22:36:48.541Z,3.20
2023-02-07T22:39:20.492Z,3.00
2023-02-07T22:41:49.990Z,2.70
2023-02-07T22:44:21.283Z,2.80
2023-02-07T22:46:50.678Z,2.70
2023-02-07T22:49:20.133Z,2.70
2023-02-07T22:51:50.922Z,2.70
2023-02-07T22:54:20.969Z,2.70
2023-02-07T22:56:50.417Z,2.80
2023-02-07T22:59:21.318Z,2.80
2023-02-07T23:01:50.778Z,2.60
2023-02-07T23:04:20.105Z,2.70
2023-02-07T23:06:49.639Z,2.60
2023-02-07T23:09:19.112Z,2.70
2023-02-07T23:11:48.717Z,2.80
2023-02-07T23:14:18.169Z,3.00
2023-02-07T23:16:49.099Z,2.90
2023-02-07T23:19:19.384Z,2.80
2023-02-07T23:21:48.720Z,2.70
2023-02-07T23:24:18.187Z,2.50
2023-02-07T23:26:48.036Z,2.50
2023-02-07T23:29:17.599Z,2.60
2023-02-07T23:31:48.889Z,2.50
2023-02-07T23:34:18.399Z,2.80
2023-02-07T23:36:49.401Z,3.00
2023-02-07T23:39:18.880Z,3.10
2023-02-07T23:41:48.229Z,3.00
2023-02-07T23:44:17.910Z,2.80
2023-02-07T23:46:48.761Z,2.80
2023-02-07T23:49:18.268Z,2.50
2023-02-07T23:51:47.615Z,2.50
2023-02-07T23:54:17.188Z,2.50
2023-02-07T23:56:46.746Z,2.70
2023-02-07T23:59:16.220Z,2.70
